Time,TemperatureF,DewpointF,PressureIn,WindDirection,WindDirectionDegrees,WindSpeedMPH,WindSpeedGustMPH,Humidity,HourlyPrecipIn,Conditions,Clouds,dailyrainin,SoftwareType,DateUTC
2013-01-27 00:01:00,17.4,14.5,30.33,SSW,207,5.0,17.0,88,0.00,,---,0.00,VWS V13.01,2013-01-27 06:01:00,
2013-01-27 00:06:00,17.3,14.4,30.35,South,184,4.0,13.0,88,0.00,,---,0.00,VWS V13.01,2013-01-27 06:06:00,
2013-01-27 00:11:00,17.2,14.3,30.35,SSW,194,3.0,13.0,88,0.00,,---,0.00,VWS V13.01,2013-01-27 06:11:00,
2013-01-27 00:16:00,17.2,14.3,30.33,SSW,198,2.0,13.0,88,0.00,,---,0.00,VWS V13.01,2013-01-27 06:16:00,
2013-01-27 00:22:00,17.1,14.2,30.33,South,182,3.0,10.0,88,0.00,,---,0.00,VWS V13.01,2013-01-27 06:22:00,
2013-01-27 00:27:00,17.1,14.2,30.33,SSE,165,1.0,10.0,88,0.00,,---,0.00,VWS V13.01,2013-01-27 06:27:00,
2013-01-27 00:32:00,17.1,14.2,30.32,SSW,199,2.0,5.0,88,0.00,,---,0.00,VWS V13.01,2013-01-27 06:32:00,
2013-01-27 00:37:00,17.1,14.2,30.32,SSW,199,3.0,13.0,88,0.00,,---,0.00,VWS V13.01,2013-01-27 06:37:00,
2013-01-27 00:42:00,17.1,14.2,30.32,SW,220,4.0,13.0,88,0.00,,---,0.00,VWS V13.01,2013-01-27 06:42:00,
2013-01-27 00:48:00,17.1,14.2,30.33,ESE,118,0.0,2.0,88,0.00,,---,0.00,VWS V13.01,2013-01-27 06:48:00,
2013-01-27 00:53:00,17.2,14.3,30.33,SSW,202,2.0,10.0,88,0.00,,---,0.00,VWS V13.01,2013-01-27 06:53:00,
2013-01-27 00:58:00,17.2,14.3,30.33,South,180,5.0,10.0,88,0.00,,---,0.00,VWS V13.01,2013-01-27 06:58:00,
2013-01-27 01:03:00,17.2,14.3,30.33,SSW,192,1.0,3.0,88,0.00,,---,0.00,VWS V13.01,2013-01-27 07:03:00,
2013-01-27 01:09:00,17.2,14.3,30.33,SE,143,4.0,9.0,88,0.00,,---,0.00,VWS V13.01,2013-01-27 07:09:00,
2013-01-27 01:14:00,17.2,14.3,30.33,South,174,1.0,9.0,88,0.00,,---,0.00,VWS V13.01,2013-01-27 07:14:00,
2013-01-27 01:19:00,17.2,14.3,30.31,SE,141,2.0,8.0,88,0.00,,---,0.00,VWS V13.01,2013-01-27 07:19:00,
2013-01-27 01:24:00,17.1,14.2,30.31,SSW,193,6.0,8.0,88,0.00,,---,0.00,VWS V13.01,2013-01-27 07:24:00,
2013-01-27 01:30:00,17.1,14.2,30.31,SW,217,2.0,10.0,88,0.00,,---,0.00,VWS V13.01,2013-01-27 07:30:00,
2013-01-27 01:35:00,17.1,14.2,30.33,SSW,209,2.0,10.0,88,0.00,,---,0.00,VWS V13.01,2013-01-27 07:35:00,
2013-01-27 01:40:00,17.1,14.2,30.33,SW,215,1.0,10.0,88,0.00,,---,0.00,VWS V13.01,2013-01-27 07:40:00,
2013-01-27 01:45:00,17.0,14.1,30.33,South,185,0.0,10.0,88,0.00,,---,0.00,VWS V13.01,2013-01-27 07:45:00,
2013-01-27 01:51:00,17.1,14.2,30.33,South,190,4.0,7.0,88,0.00,,---,0.00,VWS V13.01,2013-01-27 07:51:00,
2013-01-27 01:56:00,17.1,14.2,30.33,South,181,4.0,7.0,88,0.00,,---,0.00,VWS V13.01,2013-01-27 07:56:00,
2013-01-27 02:01:00,17.1,14.2,30.31,SSE,163,5.0,12.0,88,0.00,,---,0.00,VWS V13.01,2013-01-27 08:01:00,
2013-01-27 02:06:00,17.1,14.2,30.31,SW,215,1.0,10.0,88,0.00,,---,0.00,VWS V13.01,2013-01-27 08:06:00,
2013-01-27 02:12:00,17.0,14.1,30.31,South,179,2.0,10.0,88,0.00,,---,0.00,VWS V13.01,2013-01-27 08:12:00,
2013-01-27 02:17:00,17.0,14.1,30.31,South,190,4.0,4.0,88,0.00,,---,0.00,VWS V13.01,2013-01-27 08:17:00,
2013-01-27 02:22:00,17.0,14.1,30.31,SE,142,2.0,14.0,88,0.00,,---,0.00,VWS V13.01,2013-01-27 08:22:00,
2013-01-27 02:27:00,17.1,14.2,30.31,South,188,4.0,14.0,88,0.00,,---,0.00,VWS V13.01,2013-01-27 08:27:00,
2013-01-27 02:33:00,17.1,14.2,30.30,South,189,2.0,7.0,88,0.00,,---,0.00,VWS V13.01,2013-01-27 08:33:00,
2013-01-27 02:38:00,17.0,14.1,30.30,South,171,4.0,14.0,88,0.00,,---,0.00,VWS V13.01,2013-01-27 08:38:00,
2013-01-27 02:43:00,16.9,14.0,30.30,SSW,197,2.0,14.0,88,0.00,,---,0.00,VWS V13.01,2013-01-27 08:43:00,
2013-01-27 02:48:00,16.7,13.8,30.31,SSW,207,2.0,6.0,88,0.00,,---,0.00,VWS V13.01,2013-01-27 08:48:00,
2013-01-27 02:54:00,16.5,13.3,30.31,SSW,208,1.0,6.0,87,0.00,,---,0.00,VWS V13.01,2013-01-27 08:54:00,
2013-01-27 02:59:00,16.2,13.3,30.31,South,183,3.0,6.0,88,0.00,,---,0.00,VWS V13.01,2013-01-27 08:59:00,
2013-01-27 03:04:00,16.2,13.3,30.32,SSW,200,2.0,7.0,88,0.00,,---,0.00,VWS V13.01,2013-01-27 09:04:00,
2013-01-27 03:09:00,16.3,13.4,30.32,South,171,2.0,7.0,88,0.00,,---,0.00,VWS V13.01,2013-01-27 09:09:00,
2013-01-27 03:15:00,16.4,13.5,30.32,SSW,201,1.0,7.0,88,0.00,,---,0.00,VWS V13.01,2013-01-27 09:15:00,
2013-01-27 03:20:00,16.4,13.5,30.31,South,188,0.0,5.0,88,0.00,,---,0.00,VWS V13.01,2013-01-27 09:20:00,
2013-01-27 03:25:00,16.5,13.6,30.31,South,187,1.0,5.0,88,0.00,,---,0.00,VWS V13.01,2013-01-27 09:25:00,
2013-01-27 03:30:00,16.4,13.5,30.31,SSW,201,0.0,7.0,88,0.00,,---,0.00,VWS V13.01,2013-01-27 09:30:00,
2013-01-27 03:36:00,16.3,13.1,30.30,SSW,196,0.0,5.0,87,0.00,,---,0.00,VWS V13.01,2013-01-27 09:36:00,
2013-01-27 03:41:00,16.1,12.9,30.30,SSW,199,0.0,5.0,87,0.00,,---,0.00,VWS V13.01,2013-01-27 09:41:00,
2013-01-27 03:46:00,16.0,12.8,30.30,SSW,199,0.0,5.0,87,0.00,,---,0.00,VWS V13.01,2013-01-27 09:46:00,
2013-01-27 03:51:00,15.7,12.5,30.30,SSW,201,0.0,3.0,87,0.00,,---,0.00,VWS V13.01,2013-01-27 09:51:00,
2013-01-27 03:57:00,15.5,12.3,30.30,SSW,202,0.0,3.0,87,0.00,,---,0.00,VWS V13.01,2013-01-27 09:57:00,
2013-01-27 04:02:00,15.3,12.4,30.31,SSW,200,0.0,0.0,88,0.00,,---,0.00,VWS V13.01,2013-01-27 10:02:00,
2013-01-27 04:07:00,15.1,12.2,30.31,SSW,200,0.0,1.0,88,0.00,,---,0.00,VWS V13.01,2013-01-27 10:07:00,
2013-01-27 04:12:00,14.9,12.0,30.31,SSW,200,0.0,3.0,88,0.00,,---,0.00,VWS V13.01,2013-01-27 10:12:00,
2013-01-27 04:18:00,14.8,11.9,30.30,SSW,200,0.0,1.0,88,0.00,,---,0.00,VWS V13.01,2013-01-27 10:18:00,
2013-01-27 04:23:00,14.6,11.7,30.30,SSW,200,0.0,5.0,88,0.00,,---,0.00,VWS V13.01,2013-01-27 10:23:00,
2013-01-27 04:28:00,14.4,11.5,30.30,SSW,200,0.0,5.0,88,0.00,,---,0.00,VWS V13.01,2013-01-27 10:28:00,
2013-01-27 04:33:00,14.3,11.4,30.30,SSW,200,0.0,0.0,88,0.00,,---,0.00,VWS V13.01,2013-01-27 10:33:00,
2013-01-27 04:39:00,14.2,11.3,30.30,SSW,200,0.0,0.0,88,0.00,,---,0.00,VWS V13.01,2013-01-27 10:39:00,
2013-01-27 04:44:00,14.0,11.1,30.30,SSW,200,0.0,0.0,88,0.00,,---,0.00,VWS V13.01,2013-01-27 10:44:00,
2013-01-27 04:49:00,13.5,10.6,30.31,SSW,200,0.0,0.0,88,0.00,,---,0.00,VWS V13.01,2013-01-27 10:49:00,
2013-01-27 04:54:00,12.9,10.0,30.31,SSW,200,0.0,1.0,88,0.00,,---,0.00,VWS V13.01,2013-01-27 10:54:00,
2013-01-27 05:00:00,12.5,9.6,30.31,SSW,200,0.0,1.0,88,0.00,,---,0.00,VWS V13.01,2013-01-27 11:00:00,
2013-01-27 05:05:00,12.3,9.4,30.31,SSW,200,3.0,3.0,88,0.00,,---,0.00,VWS V13.01,2013-01-27 11:05:00,
2013-01-27 05:10:00,12.2,9.6,30.31,SSW,200,0.0,3.0,89,0.00,,---,0.00,VWS V13.01,2013-01-27 11:10:00,
2013-01-27 05:15:00,12.3,9.7,30.31,SSW,200,0.0,3.0,89,0.00,,---,0.00,VWS V13.01,2013-01-27 11:15:00,
2013-01-27 05:21:00,12.5,10.1,30.32,SSW,200,1.0,3.0,90,0.00,,---,0.00,VWS V13.01,2013-01-27 11:21:00,
2013-01-27 05:26:00,12.8,10.4,30.32,SSW,200,1.0,3.0,90,0.00,,---,0.00,VWS V13.01,2013-01-27 11:26:00,
2013-01-27 05:31:00,12.9,10.3,30.32,SSW,200,0.0,3.0,89,0.00,,---,0.00,VWS V13.01,2013-01-27 11:31:00,
2013-01-27 05:36:00,13.1,10.5,30.32,SSW,200,0.0,3.0,89,0.00,,---,0.00,VWS V13.01,2013-01-27 11:36:00,
2013-01-27 05:42:00,13.2,10.6,30.32,SSW,200,0.0,3.0,89,0.00,,---,0.00,VWS V13.01,2013-01-27 11:42:00,
2013-01-27 05:47:00,13.3,10.7,30.32,SSW,201,0.0,0.0,89,0.00,,---,0.00,VWS V13.01,2013-01-27 11:47:00,
2013-01-27 05:52:00,13.2,10.6,30.32,SSW,201,0.0,0.0,89,0.00,,---,0.00,VWS V13.01,2013-01-27 11:52:00,
2013-01-27 05:57:00,13.2,10.6,30.32,SSW,201,1.0,2.0,89,0.00,,---,0.00,VWS V13.01,2013-01-27 11:57:00,
2013-01-27 06:03:00,13.1,10.5,30.31,SSW,201,0.0,0.0,89,0.00,,---,0.00,VWS V13.01,2013-01-27 12:03:00,
2013-01-27 06:08:00,13.0,10.4,30.31,SSW,201,2.0,3.0,89,0.00,,---,0.00,VWS V13.01,2013-01-27 12:08:00,
2013-01-27 06:13:00,12.9,10.0,30.31,SSW,201,0.0,3.0,88,0.00,,---,0.00,VWS V13.01,2013-01-27 12:13:00,
2013-01-27 06:18:00,12.7,9.8,30.28,SSW,196,0.0,2.0,88,0.00,,---,0.00,VWS V13.01,2013-01-27 12:18:00,
2013-01-27 06:24:00,12.4,9.5,30.28,SSW,194,0.0,5.0,88,0.00,,---,0.00,VWS V13.01,2013-01-27 12:24:00,
2013-01-27 06:29:00,12.4,9.8,30.28,South,186,0.0,5.0,89,0.00,,---,0.00,VWS V13.01,2013-01-27 12:29:00,
2013-01-27 06:34:00,12.7,10.1,30.30,SSW,198,2.0,6.0,89,0.00,,---,0.00,VWS V13.01,2013-01-27 12:34:00,
2013-01-27 06:39:00,12.9,10.3,30.30,SSW,200,0.0,6.0,89,0.00,,---,0.00,VWS V13.01,2013-01-27 12:39:00,
2013-01-27 06:45:00,13.1,10.5,30.30,SSW,202,0.0,6.0,89,0.00,,---,0.00,VWS V13.01,2013-01-27 12:45:00,
2013-01-27 06:50:00,13.2,10.6,30.28,SSW,202,0.0,2.0,89,0.00,,---,0.00,VWS V13.01,2013-01-27 12:50:00,
2013-01-27 06:55:00,13.2,10.6,30.28,SSW,204,1.0,4.0,89,0.00,,---,0.00,VWS V13.01,2013-01-27 12:55:00,
2013-01-27 07:00:00,13.2,10.3,30.28,SSW,202,2.0,4.0,88,0.00,,---,0.00,VWS V13.01,2013-01-27 13:00:00,
2013-01-27 07:06:00,13.2,10.6,30.28,SSW,201,0.0,4.0,89,0.00,,---,0.00,VWS V13.01,2013-01-27 13:06:00,
2013-01-27 07:11:00,13.1,10.5,30.28,SSW,201,0.0,4.0,89,0.00,,---,0.00,VWS V13.01,2013-01-27 13:11:00,
2013-01-27 07:16:00,13.1,10.5,30.28,SSW,201,0.0,4.0,89,0.00,,---,0.00,VWS V13.01,2013-01-27 13:16:00,
2013-01-27 07:21:00,13.0,10.4,30.28,SSW,201,1.0,1.0,89,0.00,,---,0.00,VWS V13.01,2013-01-27 13:21:00,
2013-01-27 07:27:00,13.0,10.4,30.28,SSW,201,0.0,1.0,89,0.00,,---,0.00,VWS V13.01,2013-01-27 13:27:00,
2013-01-27 07:32:00,13.1,10.5,30.29,SSW,201,0.0,0.0,89,0.00,,---,0.00,VWS V13.01,2013-01-27 13:32:00,
2013-01-27 07:37:00,13.2,10.6,30.29,SSW,201,0.0,2.0,89,0.00,,---,0.00,VWS V13.01,2013-01-27 13:37:00,
2013-01-27 07:42:00,13.0,10.1,30.29,SSW,201,0.0,2.0,88,0.00,,---,0.00,VWS V13.01,2013-01-27 13:42:00,
2013-01-27 07:48:00,13.0,10.4,30.29,SSW,201,0.0,1.0,89,0.00,,---,0.00,VWS V13.01,2013-01-27 13:48:00,
2013-01-27 07:53:00,13.1,10.5,30.29,SSW,201,0.0,1.0,89,0.00,,---,0.00,VWS V13.01,2013-01-27 13:53:00,
2013-01-27 07:58:00,13.3,10.9,30.29,SSW,201,0.0,2.0,90,0.00,,---,0.00,VWS V13.01,2013-01-27 13:58:00,
2013-01-27 08:03:00,13.4,10.8,30.30,SSW,201,0.0,0.0,89,0.00,,---,0.00,VWS V13.01,2013-01-27 14:03:00,
2013-01-27 08:09:00,13.6,11.0,30.30,SSW,201,0.0,1.0,89,0.00,,---,0.00,VWS V13.01,2013-01-27 14:09:00,
2013-01-27 08:14:00,13.9,11.3,30.30,SSW,201,0.0,1.0,89,0.00,,---,0.00,VWS V13.01,2013-01-27 14:14:00,
2013-01-27 08:19:00,14.2,11.6,30.27,SSW,201,0.0,0.0,89,0.00,,---,0.00,VWS V13.01,2013-01-27 14:19:00,
2013-01-27 08:24:00,14.6,11.9,30.27,SSW,201,1.0,2.0,89,0.00,,---,0.00,VWS V13.01,2013-01-27 14:24:00,
2013-01-27 08:30:00,14.9,12.2,30.27,SSW,204,3.0,3.0,89,0.00,,---,0.00,VWS V13.01,2013-01-27 14:30:00,
2013-01-27 08:35:00,15.1,12.2,30.28,SSW,192,2.0,5.0,88,0.00,,---,0.00,VWS V13.01,2013-01-27 14:35:00,
2013-01-27 08:40:00,15.4,12.5,30.28,South,180,1.0,5.0,88,0.00,,---,0.00,VWS V13.01,2013-01-27 14:40:00,
2013-01-27 08:46:00,15.7,12.8,30.28,South,182,0.0,5.0,88,0.00,,---,0.00,VWS V13.01,2013-01-27 14:46:00,
2013-01-27 08:51:00,16.1,13.2,30.26,South,180,1.0,5.0,88,0.00,,---,0.00,VWS V13.01,2013-01-27 14:51:00,
2013-01-27 08:56:00,16.3,13.4,30.26,South,181,1.0,5.0,88,0.00,,---,0.00,VWS V13.01,2013-01-27 14:56:00,
2013-01-27 09:01:00,16.4,13.5,30.25,South,174,1.0,6.0,88,0.00,,---,0.00,VWS V13.01,2013-01-27 15:01:00,
2013-01-27 09:07:00,16.6,13.7,30.25,South,173,0.0,4.0,88,0.00,,---,0.00,VWS V13.01,2013-01-27 15:07:00,
2013-01-27 09:12:00,17.0,14.1,30.25,South,183,4.0,9.0,88,0.00,,---,0.00,VWS V13.01,2013-01-27 15:12:00,
2013-01-27 09:17:00,17.5,14.6,30.24,SSW,199,2.0,2.0,88,0.00,,---,0.00,VWS V13.01,2013-01-27 15:17:00,
2013-01-27 09:22:00,18.0,14.8,30.24,SSE,166,1.0,5.0,87,0.00,,---,0.00,VWS V13.01,2013-01-27 15:22:00,
2013-01-27 09:28:00,18.5,15.0,30.24,South,171,2.0,7.0,86,0.00,,---,0.00,VWS V13.01,2013-01-27 15:28:00,
2013-01-27 09:33:00,18.9,15.4,30.22,South,182,3.0,6.0,86,0.00,,---,0.00,VWS V13.01,2013-01-27 15:33:00,
2013-01-27 09:38:00,19.2,15.7,30.22,SSE,167,1.0,7.0,86,0.00,,---,0.00,VWS V13.01,2013-01-27 15:38:00,
2013-01-27 09:43:00,19.5,16.0,30.22,SSE,165,0.0,7.0,86,0.00,,---,0.00,VWS V13.01,2013-01-27 15:43:00,
2013-01-27 09:48:00,20.0,16.5,30.22,South,173,1.0,4.0,86,0.00,,---,0.00,VWS V13.01,2013-01-27 15:48:00,
2013-01-27 09:54:00,20.7,16.9,30.22,SSW,192,6.0,9.0,85,0.00,,---,0.00,VWS V13.01,2013-01-27 15:54:00,
2013-01-27 09:59:00,21.1,17.3,30.22,South,180,4.0,9.0,85,0.00,,---,0.00,VWS V13.01,2013-01-27 15:59:00,
2013-01-27 10:04:00,21.5,17.7,30.20,South,184,4.0,7.0,85,0.00,,---,0.00,VWS V13.01,2013-01-27 16:04:00,
2013-01-27 10:09:00,21.8,17.7,30.20,South,171,4.0,10.0,84,0.00,,---,0.00,VWS V13.01,2013-01-27 16:09:00,
2013-01-27 10:15:00,22.0,17.9,30.20,SSE,165,1.0,10.0,84,0.00,,---,0.00,VWS V13.01,2013-01-27 16:15:00,
2013-01-27 10:20:00,22.5,18.7,30.20,South,180,1.0,5.0,85,0.00,,---,0.00,VWS V13.01,2013-01-27 16:20:00,
2013-01-27 10:25:00,22.9,18.8,30.20,South,169,5.0,7.0,84,0.00,,---,0.00,VWS V13.01,2013-01-27 16:25:00,
2013-01-27 10:30:00,23.0,18.9,30.20,SSE,154,3.0,10.0,84,0.00,,---,0.00,VWS V13.01,2013-01-27 16:30:00,
2013-01-27 10:36:00,23.5,19.1,30.18,South,182,1.0,5.0,83,0.00,,---,0.00,VWS V13.01,2013-01-27 16:36:00,
2013-01-27 10:41:00,23.8,19.1,30.18,SSE,157,9.0,9.0,82,0.00,,---,0.00,VWS V13.01,2013-01-27 16:41:00,
2013-01-27 10:46:00,23.6,18.9,30.17,SSE,153,4.0,12.0,82,0.00,,---,0.00,VWS V13.01,2013-01-27 16:46:00,
2013-01-27 10:51:00,23.5,18.8,30.17,SSW,192,4.0,9.0,82,0.00,,---,0.00,VWS V13.01,2013-01-27 16:51:00,
2013-01-27 10:57:00,24.0,19.6,30.17,SSE,153,4.0,9.0,83,0.00,,---,0.00,VWS V13.01,2013-01-27 16:57:00,
2013-01-27 11:02:00,24.1,19.4,30.17,SE,138,5.0,5.0,82,0.00,,---,0.00,VWS V13.01,2013-01-27 17:02:00,
2013-01-27 11:07:00,24.0,19.3,30.17,SSE,159,5.0,11.0,82,0.00,,---,0.00,VWS V13.01,2013-01-27 17:07:00,
2013-01-27 11:12:00,24.2,19.8,30.17,SSE,162,4.0,11.0,83,0.00,,---,0.00,VWS V13.01,2013-01-27 17:12:00,
2013-01-27 11:18:00,24.4,20.0,30.16,South,177,2.0,4.0,83,0.00,,---,0.00,VWS V13.01,2013-01-27 17:18:00,
2013-01-27 11:23:00,24.7,20.0,30.16,SSE,157,5.0,11.0,82,0.00,,---,0.00,VWS V13.01,2013-01-27 17:23:00,
2013-01-27 11:28:00,24.4,19.7,30.16,South,183,0.0,11.0,82,0.00,,---,0.00,VWS V13.01,2013-01-27 17:28:00,
2013-01-27 11:33:00,24.3,19.9,30.15,South,171,2.0,7.0,83,0.00,,---,0.00,VWS V13.01,2013-01-27 17:33:00,
2013-01-27 11:39:00,24.0,19.6,30.15,SE,134,5.0,12.0,83,0.00,,---,0.00,VWS V13.01,2013-01-27 17:39:00,
2013-01-27 11:44:00,23.9,19.5,30.15,South,182,1.0,12.0,83,0.00,,---,0.00,VWS V13.01,2013-01-27 17:44:00,
2013-01-27 11:49:00,23.9,19.5,30.15,South,171,3.0,5.0,83,0.00,,---,0.00,VWS V13.01,2013-01-27 17:49:00,
2013-01-27 11:54:00,24.1,19.7,30.15,SSW,192,1.0,11.0,83,0.00,,---,0.00,VWS V13.01,2013-01-27 17:54:00,
2013-01-27 12:00:00,24.4,20.0,30.15,SSE,147,5.0,11.0,83,0.00,,---,0.00,VWS V13.01,2013-01-27 18:00:00,
2013-01-27 12:05:00,24.7,20.3,30.12,SSE,162,2.0,6.0,83,0.00,,---,0.00,VWS V13.01,2013-01-27 18:05:00,
2013-01-27 12:10:00,24.9,20.8,30.12,SSW,205,4.0,7.0,84,0.00,,---,0.00,VWS V13.01,2013-01-27 18:10:00,
2013-01-27 12:15:00,25.3,20.9,30.12,SSE,157,4.0,7.0,83,0.00,,---,0.00,VWS V13.01,2013-01-27 18:15:00,
2013-01-27 12:21:00,25.7,21.3,30.11,South,176,2.0,7.0,83,0.00,,---,0.00,VWS V13.01,2013-01-27 18:21:00,
2013-01-27 12:26:00,25.9,21.5,30.11,South,171,0.0,7.0,83,0.00,,---,0.00,VWS V13.01,2013-01-27 18:26:00,
2013-01-27 12:31:00,25.9,20.9,30.11,SSE,167,2.0,10.0,81,0.00,,---,0.00,VWS V13.01,2013-01-27 18:31:00,
2013-01-27 12:36:00,25.9,21.5,30.11,South,187,2.0,7.0,83,0.00,,---,0.00,VWS V13.01,2013-01-27 18:36:00,
2013-01-27 12:42:00,26.1,21.4,30.11,SE,146,3.0,7.0,82,0.00,,---,0.00,VWS V13.01,2013-01-27 18:42:00,
2013-01-27 12:47:00,26.0,21.3,30.10,SSE,148,2.0,8.0,82,0.00,,---,0.00,VWS V13.01,2013-01-27 18:47:00,
2013-01-27 12:52:00,26.1,21.6,30.10,SE,145,3.0,11.0,83,0.00,,---,0.00,VWS V13.01,2013-01-27 18:52:00,
2013-01-27 12:57:00,26.2,21.8,30.10,SSW,203,5.0,11.0,83,0.00,,---,0.00,VWS V13.01,2013-01-27 18:57:00,
2013-01-27 13:03:00,26.2,21.5,30.09,SSE,165,5.0,5.0,82,0.00,,---,0.00,VWS V13.01,2013-01-27 19:03:00,
2013-01-27 13:08:00,26.4,22.0,30.09,SSE,155,4.0,5.0,83,0.00,,---,0.00,VWS V13.01,2013-01-27 19:08:00,
2013-01-27 13:13:00,26.3,21.9,30.09,SSE,166,0.0,10.0,83,0.00,,---,0.00,VWS V13.01,2013-01-27 19:13:00,
2013-01-27 13:18:00,26.5,22.0,30.07,SSE,158,2.0,5.0,83,0.00,,---,0.00,VWS V13.01,2013-01-27 19:18:00,
2013-01-27 13:24:00,27.0,22.5,30.07,SSW,193,2.0,5.0,83,0.00,,---,0.00,VWS V13.01,2013-01-27 19:24:00,
2013-01-27 13:29:00,27.4,22.4,30.07,SE,129,0.0,5.0,81,0.00,,---,0.00,VWS V13.01,2013-01-27 19:29:00,
2013-01-27 13:34:00,27.3,22.0,30.06,SSE,152,2.0,6.0,80,0.00,,---,0.00,VWS V13.01,2013-01-27 19:34:00,
2013-01-27 13:39:00,27.0,22.0,30.06,SSE,156,3.0,8.0,81,0.00,,---,0.00,VWS V13.01,2013-01-27 19:39:00,
2013-01-27 13:45:00,26.7,21.7,30.06,South,169,2.0,8.0,81,0.00,,---,0.00,VWS V13.01,2013-01-27 19:45:00,
2013-01-27 13:50:00,26.9,22.1,30.06,SSE,162,6.0,8.0,82,0.00,,---,0.00,VWS V13.01,2013-01-27 19:50:00,
2013-01-27 13:55:00,27.0,22.2,30.06,SSW,204,3.0,9.0,82,0.00,,---,0.00,VWS V13.01,2013-01-27 19:55:00,
2013-01-27 14:00:00,27.5,22.5,30.06,South,174,1.0,9.0,81,0.00,,---,0.00,VWS V13.01,2013-01-27 20:00:00,
2013-01-27 14:06:00,28.0,22.9,30.06,South,173,1.0,5.0,81,0.00,,---,0.00,VWS V13.01,2013-01-27 20:06:00,
2013-01-27 14:11:00,28.0,22.3,30.06,SSW,203,4.0,6.0,79,0.00,,---,0.00,VWS V13.01,2013-01-27 20:11:00,
2013-01-27 14:16:00,27.6,21.6,30.05,SSE,161,1.0,8.0,78,0.00,,---,0.00,VWS V13.01,2013-01-27 20:16:00,
2013-01-27 14:21:00,27.3,22.0,30.05,SSW,208,1.0,9.0,80,0.00,,---,0.00,VWS V13.01,2013-01-27 20:21:00,
2013-01-27 14:27:00,27.4,22.0,30.05,SSE,160,2.0,9.0,80,0.00,,---,0.00,VWS V13.01,2013-01-27 20:27:00,
2013-01-27 14:32:00,27.4,21.8,30.07,SSE,168,2.0,3.0,79,0.00,,---,0.00,VWS V13.01,2013-01-27 20:32:00,
2013-01-27 14:37:00,27.4,22.4,30.07,South,190,0.0,5.0,81,0.00,,---,0.00,VWS V13.01,2013-01-27 20:37:00,
2013-01-27 14:42:00,27.1,21.8,30.07,South,191,4.0,7.0,80,0.00,,---,0.00,VWS V13.01,2013-01-27 20:42:00,
2013-01-27 14:48:00,26.6,21.6,30.07,SSE,165,1.0,5.0,81,0.00,,---,0.00,VWS V13.01,2013-01-27 20:48:00,
2013-01-27 14:53:00,26.4,21.4,30.07,SSE,153,0.0,6.0,81,0.00,,---,0.00,VWS V13.01,2013-01-27 20:53:00,
2013-01-27 14:58:00,26.5,21.8,30.07,ESE,118,2.0,6.0,82,0.00,,---,0.00,VWS V13.01,2013-01-27 20:58:00,
2013-01-27 15:03:00,26.3,21.6,30.07,SSE,167,3.0,6.0,82,0.00,,---,0.00,VWS V13.01,2013-01-27 21:03:00,
2013-01-27 15:09:00,26.3,21.6,30.07,South,173,1.0,7.0,82,0.00,,---,0.00,VWS V13.01,2013-01-27 21:09:00,
2013-01-27 15:14:00,26.1,21.4,30.07,SE,143,1.0,10.0,82,0.00,,---,0.00,VWS V13.01,2013-01-27 21:14:00,
2013-01-27 15:19:00,26.0,21.3,30.08,SSE,163,1.0,6.0,82,0.00,,---,0.00,VWS V13.01,2013-01-27 21:19:00,
2013-01-27 15:55:00,25.1,20.7,30.08,SE,129,0.0,7.0,83,0.00,,---,0.00,VWS V13.01,2013-01-27 21:55:00,
2013-01-27 16:01:00,24.9,20.5,30.08,South,171,3.0,9.0,83,0.00,,---,0.00,VWS V13.01,2013-01-27 22:01:00,
2013-01-27 16:06:00,24.7,20.3,30.08,SSE,149,1.0,4.0,83,0.00,,---,0.00,VWS V13.01,2013-01-27 22:06:00,
2013-01-27 16:11:00,24.5,20.1,30.08,SSE,148,0.0,6.0,83,0.00,,---,0.00,VWS V13.01,2013-01-27 22:11:00,
2013-01-27 16:16:00,24.3,19.9,30.10,SSE,157,0.0,8.0,83,0.00,,---,0.00,VWS V13.01,2013-01-27 22:16:00,
2013-01-27 16:22:00,24.1,20.0,30.10,SSE,165,2.0,5.0,84,0.00,,---,0.00,VWS V13.01,2013-01-27 22:22:00,
2013-01-27 16:27:00,23.9,19.8,30.10,SE,146,0.0,6.0,84,0.00,,---,0.00,VWS V13.01,2013-01-27 22:27:00,
2013-01-27 16:32:00,23.8,19.7,30.10,South,169,2.0,9.0,84,0.00,,---,0.00,VWS V13.01,2013-01-27 22:32:00,
2013-01-27 16:38:00,23.6,19.8,30.10,SSE,154,0.0,9.0,85,0.00,,---,0.00,VWS V13.01,2013-01-27 22:38:00,
2013-01-27 16:43:00,23.4,19.6,30.10,SSE,159,1.0,9.0,85,0.00,,---,0.00,VWS V13.01,2013-01-27 22:43:00,
2013-01-27 16:48:00,23.3,19.5,30.10,SSE,150,3.0,6.0,85,0.00,,---,0.00,VWS V13.01,2013-01-27 22:48:00,
2013-01-27 16:53:00,23.2,19.6,30.10,SE,144,0.0,8.0,86,0.00,,---,0.00,VWS V13.01,2013-01-27 22:53:00,
2013-01-27 16:59:00,23.0,19.5,30.10,SE,144,2.0,8.0,86,0.00,,---,0.00,VWS V13.01,2013-01-27 22:59:00,
2013-01-27 17:04:00,22.9,19.4,30.10,SE,146,1.0,4.0,86,0.00,,---,0.00,VWS V13.01,2013-01-27 23:04:00,
2013-01-27 17:09:00,22.8,19.2,30.10,SE,145,0.0,5.0,86,0.00,,---,0.00,VWS V13.01,2013-01-27 23:09:00,
2013-01-27 17:15:00,22.6,19.3,30.10,SSE,149,0.0,5.0,87,0.00,,---,0.00,VWS V13.01,2013-01-27 23:15:00,
2013-01-27 17:20:00,22.5,19.2,30.09,SSE,148,0.0,2.0,87,0.00,,---,0.00,VWS V13.01,2013-01-27 23:20:00,
2013-01-27 17:25:00,22.5,19.2,30.09,SSE,150,1.0,3.0,87,0.00,,---,0.00,VWS V13.01,2013-01-27 23:25:00,
2013-01-27 17:31:00,22.4,19.4,30.10,SE,142,1.0,4.0,88,0.00,,---,0.00,VWS V13.01,2013-01-27 23:31:00,
2013-01-27 17:36:00,22.3,19.3,30.10,SE,146,0.0,6.0,88,0.00,,---,0.00,VWS V13.01,2013-01-27 23:36:00,
2013-01-27 17:42:00,22.2,19.2,30.10,SE,142,2.0,6.0,88,0.00,,---,0.00,VWS V13.01,2013-01-27 23:42:00,
2013-01-27 17:47:00,22.1,19.1,30.10,SSE,155,4.0,9.0,88,0.00,,---,0.00,VWS V13.01,2013-01-27 23:47:00,
2013-01-27 17:52:00,22.1,19.4,30.10,SSE,158,2.0,11.0,89,0.00,,---,0.00,VWS V13.01,2013-01-27 23:52:00,
2013-01-27 17:57:00,22.1,19.4,30.10,SSE,155,5.0,11.0,89,0.00,,---,0.00,VWS V13.01,2013-01-27 23:57:00,
2013-01-27 18:02:00,22.1,19.4,30.10,SSE,156,6.0,6.0,89,0.00,,---,0.00,VWS V13.01,2013-01-28 00:02:00,
2013-01-27 18:08:00,22.1,19.4,30.10,SE,134,2.0,6.0,89,0.00,,---,0.00,VWS V13.01,2013-01-28 00:08:00,
2013-01-27 18:13:00,22.2,19.5,30.10,SSE,159,1.0,6.0,89,0.00,,---,0.00,VWS V13.01,2013-01-28 00:13:00,
2013-01-27 18:18:00,22.2,19.5,30.10,SSE,153,2.0,4.0,89,0.00,,---,0.00,VWS V13.01,2013-01-28 00:18:00,
2013-01-27 18:23:00,22.3,19.6,30.10,ESE,117,2.0,7.0,89,0.00,,---,0.00,VWS V13.01,2013-01-28 00:23:00,
2013-01-27 18:29:00,22.4,19.7,30.10,SSE,154,1.0,7.0,89,0.00,,---,0.00,VWS V13.01,2013-01-28 00:29:00,
2013-01-27 18:34:00,22.5,19.8,30.09,ESE,121,3.0,5.0,89,0.00,,---,0.00,VWS V13.01,2013-01-28 00:34:00,
2013-01-27 18:39:00,22.6,19.9,30.09,SE,141,1.0,5.0,89,0.00,,---,0.00,VWS V13.01,2013-01-28 00:39:00,
2013-01-27 18:44:00,22.7,20.0,30.09,SE,138,2.0,7.0,89,0.00,,---,0.00,VWS V13.01,2013-01-28 00:44:00,
2013-01-27 18:50:00,22.8,20.0,30.08,SE,142,0.0,7.0,89,0.00,,---,0.00,VWS V13.01,2013-01-28 00:50:00,
2013-01-27 18:55:00,22.9,20.1,30.08,SE,141,3.0,7.0,89,0.00,,---,0.00,VWS V13.01,2013-01-28 00:55:00,
2013-01-27 19:00:00,22.9,19.9,30.08,SE,136,0.0,7.0,88,0.00,,---,0.00,VWS V13.01,2013-01-28 01:00:00,
2013-01-27 19:06:00,23.0,20.0,30.07,SSE,160,2.0,12.0,88,0.00,,---,0.00,VWS V13.01,2013-01-28 01:06:00,
2013-01-27 19:11:00,23.1,20.1,30.07,SE,138,3.0,12.0,88,0.00,,---,0.00,VWS V13.01,2013-01-28 01:11:00,
2013-01-27 19:16:00,23.1,20.1,30.07,South,190,0.0,12.0,88,0.00,,---,0.00,VWS V13.01,2013-01-28 01:16:00,
2013-01-27 19:21:00,23.2,20.2,30.07,South,184,1.0,5.0,88,0.00,,---,0.00,VWS V13.01,2013-01-28 01:21:00,
2013-01-27 19:26:00,23.2,20.2,30.07,East,97,5.0,5.0,88,0.00,,---,0.00,VWS V13.01,2013-01-28 01:26:00,
2013-01-27 19:32:00,23.3,20.3,30.06,ESE,119,2.0,6.0,88,0.00,,---,0.00,VWS V13.01,2013-01-28 01:32:00,
2013-01-27 19:37:00,23.4,20.4,30.06,SSE,163,3.0,6.0,88,0.00,,---,0.00,VWS V13.01,2013-01-28 01:37:00,
2013-01-27 19:42:00,23.5,20.5,30.06,ESE,115,1.0,6.0,88,0.00,,---,0.00,VWS V13.01,2013-01-28 01:42:00,
2013-01-27 19:47:00,23.6,20.6,30.05,SE,125,3.0,3.0,88,0.00,,---,0.00,VWS V13.01,2013-01-28 01:47:00,
2013-01-27 19:53:00,23.8,20.8,30.05,South,169,1.0,7.0,88,0.00,,---,0.00,VWS V13.01,2013-01-28 01:53:00,
2013-01-27 19:58:00,23.9,20.9,30.05,SE,143,3.0,7.0,88,0.00,,---,0.00,VWS V13.01,2013-01-28 01:58:00,
2013-01-27 20:03:00,24.1,20.8,30.05,SE,136,5.0,8.0,87,0.00,,---,0.00,VWS V13.01,2013-01-28 02:03:00,
2013-01-27 20:08:00,24.2,20.9,30.05,SE,131,3.0,8.0,87,0.00,,---,0.00,VWS V13.01,2013-01-28 02:08:00,
2013-01-27 20:14:00,24.2,20.9,30.05,SSE,153,4.0,8.0,87,0.00,,---,0.00,VWS V13.01,2013-01-28 02:14:00,
2013-01-27 20:19:00,24.2,20.9,30.01,SE,132,1.0,7.0,87,0.00,,---,0.00,VWS V13.01,2013-01-28 02:19:00,
2013-01-27 20:24:00,24.2,20.6,30.01,SE,145,3.0,8.0,86,0.00,,---,0.00,VWS V13.01,2013-01-28 02:24:00,
2013-01-27 20:30:00,24.2,20.6,30.01,SE,141,3.0,8.0,86,0.00,,---,0.00,VWS V13.01,2013-01-28 02:30:00,
2013-01-27 20:35:00,24.3,20.7,30.00,SE,142,7.0,8.0,86,0.00,,---,0.00,VWS V13.01,2013-01-28 02:35:00,
2013-01-27 20:40:00,24.3,20.7,30.00,ESE,123,9.0,12.0,86,0.00,,---,0.00,VWS V13.01,2013-01-28 02:40:00,
2013-01-27 20:45:00,24.4,20.8,30.00,ESE,114,4.0,12.0,86,0.00,,---,0.00,VWS V13.01,2013-01-28 02:45:00,
2013-01-27 20:50:00,24.5,20.6,30.00,SSE,155,2.0,9.0,85,0.00,,---,0.00,VWS V13.01,2013-01-28 02:50:00,
2013-01-27 20:56:00,24.6,20.7,30.00,SSE,163,4.0,11.0,85,0.00,,---,0.00,VWS V13.01,2013-01-28 02:56:00,
2013-01-27 21:01:00,24.6,20.7,29.99,SE,125,3.0,11.0,85,0.00,,---,0.00,VWS V13.01,2013-01-28 03:01:00,
2013-01-27 21:06:00,24.7,20.8,29.99,SE,144,4.0,8.0,85,0.00,,---,0.00,VWS V13.01,2013-01-28 03:06:00,
2013-01-27 21:12:00,24.7,20.8,29.99,SSE,148,3.0,9.0,85,0.00,,---,0.00,VWS V13.01,2013-01-28 03:12:00,
2013-01-27 21:17:00,24.7,20.8,29.94,East,86,2.0,9.0,85,0.00,,---,0.00,VWS V13.01,2013-01-28 03:17:00,
2013-01-27 21:22:00,24.8,20.9,29.94,ESE,113,5.0,10.0,85,0.00,,---,0.00,VWS V13.01,2013-01-28 03:22:00,
2013-01-27 21:27:00,24.9,21.0,29.94,SSE,150,2.0,10.0,85,0.00,,---,0.00,VWS V13.01,2013-01-28 03:27:00,
2013-01-27 21:32:00,25.1,21.2,29.94,SE,130,2.0,4.0,85,0.00,,---,0.00,VWS V13.01,2013-01-28 03:32:00,
2013-01-27 21:38:00,25.1,21.2,29.94,SE,138,4.0,11.0,85,0.00,,---,0.00,VWS V13.01,2013-01-28 03:38:00,
2013-01-27 21:43:00,25.2,21.3,29.94,SSE,158,4.0,11.0,85,0.00,,---,0.00,VWS V13.01,2013-01-28 03:43:00,
2013-01-27 21:48:00,25.4,21.8,29.93,SE,142,4.0,6.0,86,0.00,,---,0.00,VWS V13.01,2013-01-28 03:48:00,
2013-01-27 21:53:00,25.5,21.9,29.93,SE,143,5.0,9.0,86,0.00,,---,0.00,VWS V13.01,2013-01-28 03:53:00,
2013-01-27 21:58:00,25.6,22.0,29.93,SE,138,3.0,9.0,86,0.00,,---,0.00,VWS V13.01,2013-01-28 03:58:00,
2013-01-27 22:04:00,25.7,22.1,29.93,SSE,154,4.0,7.0,86,0.00,,---,0.00,VWS V13.01,2013-01-28 04:04:00,
2013-01-27 22:09:00,25.8,22.2,29.93,SSE,151,4.0,12.0,86,0.00,,---,0.00,VWS V13.01,2013-01-28 04:09:00,
2013-01-27 22:14:00,25.9,22.6,29.93,SSE,148,3.0,12.0,87,0.00,,---,0.00,VWS V13.01,2013-01-28 04:14:00,
2013-01-27 22:20:00,25.8,22.7,29.90,SSE,159,4.0,8.0,88,0.00,,---,0.00,VWS V13.01,2013-01-28 04:20:00,
2013-01-27 22:25:00,25.8,23.0,29.90,SE,126,4.0,10.0,89,0.00,,---,0.00,VWS V13.01,2013-01-28 04:25:00,
2013-01-27 22:30:00,25.9,23.4,29.90,SE,142,2.0,10.0,90,0.00,,---,0.00,VWS V13.01,2013-01-28 04:30:00,
2013-01-27 22:35:00,26.0,23.5,29.90,SE,138,4.0,8.0,90,0.00,,---,0.00,VWS V13.01,2013-01-28 04:35:00,
2013-01-27 22:41:00,26.0,23.5,29.90,ESE,109,5.0,8.0,90,0.00,,---,0.00,VWS V13.01,2013-01-28 04:41:00,
2013-01-27 22:46:00,26.1,23.6,29.89,SSE,149,9.0,9.0,90,0.00,,---,0.00,VWS V13.01,2013-01-28 04:46:00,
2013-01-27 22:51:00,26.2,23.7,29.89,SSE,148,2.0,9.0,90,0.00,,---,0.00,VWS V13.01,2013-01-28 04:51:00,
2013-01-27 22:56:00,26.2,23.7,29.89,SSE,150,5.0,9.0,90,0.00,,---,0.00,VWS V13.01,2013-01-28 04:56:00,
2013-01-27 23:00:00,26.2,23.7,29.89,SSE,153,4.0,9.0,90,0.00,,---,0.00,VWS V13.01,2013-01-28 05:00:00,
2013-01-27 23:01:00,26.2,23.7,29.89,SE,136,7.0,9.0,90,0.00,,---,0.00,VWS V13.01,2013-01-28 05:01:00,
2013-01-27 23:02:00,26.2,23.7,29.89,SE,134,3.0,9.0,90,0.00,,---,0.00,VWS V13.01,2013-01-28 05:02:00,
2013-01-27 23:03:00,26.2,23.7,29.89,SE,142,0.0,4.0,90,0.00,,---,0.00,VWS V13.01,2013-01-28 05:03:00,
2013-01-27 23:08:00,26.2,23.7,29.89,SSE,148,2.0,6.0,90,0.00,,---,0.00,VWS V13.01,2013-01-28 05:08:00,
2013-01-27 23:14:00,26.3,23.8,29.89,SSE,166,2.0,7.0,90,0.00,,---,0.00,VWS V13.01,2013-01-28 05:14:00,
2013-01-27 23:19:00,26.3,23.8,29.89,South,175,4.0,10.0,90,0.00,,---,0.00,VWS V13.01,2013-01-28 05:19:00,
2013-01-27 23:24:00,26.3,24.0,29.89,SE,128,1.0,10.0,91,0.00,,---,0.00,VWS V13.01,2013-01-28 05:24:00,
2013-01-27 23:29:00,26.3,24.0,29.89,SSE,158,5.0,10.0,91,0.00,,---,0.00,VWS V13.01,2013-01-28 05:29:00,
2013-01-27 23:34:00,26.3,24.0,29.89,SE,132,4.0,11.0,91,0.00,,---,0.00,VWS V13.01,2013-01-28 05:34:00,
2013-01-27 23:40:00,26.3,24.0,29.89,SE,146,3.0,13.0,91,0.00,,---,0.00,VWS V13.01,2013-01-28 05:40:00,
2013-01-27 23:45:00,26.2,24.2,29.89,SE,139,1.0,13.0,92,0.00,,---,0.00,VWS V13.01,2013-01-28 05:45:00,
2013-01-27 23:50:00,26.3,24.3,29.88,ESE,109,6.0,9.0,92,0.00,,---,0.00,VWS V13.01,2013-01-28 05:50:00,
2013-01-27 23:55:00,26.3,24.3,29.88,SSE,149,3.0,9.0,92,0.00,,---,0.00,VWS V13.01,2013-01-28 05:55:00,